Hauptseite
METAR-TAF:

METAR-TAF

Flughäfen :

Dübendorf, Schweiz

Militärflugplatz Dübendorf

Breite: 47-23-55N, Länge: 8-38-53E, Höhe: 448 m

Beobachtung

Neuester Wetterbericht von vor 2 Stunden und 25 Minuten, um 21:50 UTC
Wind 4 kt aus Süd/Südost, variierte zwischen Ost/Südost und Südwest
Temperatur 23°C
Luftfeuchtigkeit 65%
Luftdruck 1003 hPa
Sichtweite 10 km oder mehr
Leicht bewölkt in der Höhe von 10000 ft

METAR: LSMD 272150Z AUTO 16004KT 110V230 9999NDV FEW100 23/16 Q1003 RMK

Zeit: 02:15 (00:15 UTC)


TAF: fehlend

Wetterbeobachtungen und Prognosen von mehr als 4000 Flughäfen (METAR und TAF Bericht).

Die verfügbaren Stationen werden durch gelbe und rote Markierungen auf der Karte dargestellt.

Führen Sie die Maus auf sie, um den Namen der Station zu sehen.

Darauf klicken, um die Beobachtung von Wetterbeobachtungen und Prognosen zu sehen.

Um die Karte zu ändern : klicken Sie auf den grünen Tasten mit einem schwarzen Kreuz Zum Vergrößern, auf den grünen Button mit einem Gedankenstrich zu verkleinern, oder auf die grünen Pfeile für benachbarte Karten.


METAR-TAF: